createdAt,value
2019-06-27T00:02:01.771Z,17.5
2019-06-27T00:07:01.494Z,17.5
2019-06-27T00:12:01.221Z,17.3
2019-06-27T00:17:00.946Z,17.4
2019-06-27T00:22:00.752Z,17.2
2019-06-27T00:27:00.255Z,17.3
2019-06-27T00:32:00.031Z,17
2019-06-27T00:36:59.802Z,17.2
2019-06-27T00:41:59.399Z,17.2
2019-06-27T00:46:59.232Z,17
2019-06-27T00:51:59.029Z,16.8
2019-06-27T00:57:12.766Z,17.1
2019-06-27T01:02:12.299Z,17.1
2019-06-27T01:07:12.060Z,17
2019-06-27T01:12:11.853Z,17
2019-06-27T01:17:11.537Z,17
2019-06-27T01:22:11.137Z,16.9
2019-06-27T01:27:10.891Z,16.9
2019-06-27T01:32:10.684Z,16.7
2019-06-27T01:37:10.393Z,16.9
2019-06-27T01:42:10.246Z,16.7
2019-06-27T01:47:10.044Z,16.9
2019-06-27T01:52:09.679Z,16.8
2019-06-27T01:57:09.506Z,16.8
2019-06-27T02:02:09.177Z,16.8
2019-06-27T02:07:08.831Z,16.8
2019-06-27T02:12:08.518Z,16.8
2019-06-27T02:17:08.089Z,16.7
2019-06-27T02:22:07.740Z,16.6
2019-06-27T02:27:07.289Z,16.6
2019-06-27T02:32:06.971Z,16.5
2019-06-27T02:37:06.628Z,16.5
2019-06-27T02:42:06.314Z,16.5
2019-06-27T02:47:05.951Z,16.5
2019-06-27T02:52:05.596Z,16.3
2019-06-27T02:57:05.171Z,16.4
2019-06-27T03:02:04.984Z,16.5
2019-06-27T03:07:04.853Z,16.5
2019-06-27T03:12:04.855Z,16.8
2019-06-27T03:17:04.778Z,17.5
2019-06-27T03:22:06.247Z,19.1
2019-06-27T03:27:07.299Z,20.5
2019-06-27T03:32:08.298Z,21.6
2019-06-27T03:37:09.258Z,22.8
2019-06-27T03:42:10.076Z,23.8
2019-06-27T03:47:10.115Z,24.3
2019-06-27T03:52:10.127Z,24.4
2019-06-27T03:57:09.950Z,24.8
2019-06-27T04:02:09.496Z,24.7
2019-06-27T04:07:09.591Z,25.2
2019-06-27T04:12:09.530Z,25.2
2019-06-27T04:17:09.163Z,24.9
2019-06-27T04:22:09.603Z,25.6
2019-06-27T04:27:10.440Z,25.8
2019-06-27T04:32:10.723Z,26.4
2019-06-27T04:37:11.306Z,26.9
2019-06-27T04:42:11.558Z,28.2
2019-06-27T04:47:11.318Z,27.5
2019-06-27T04:52:10.900Z,27.7
2019-06-27T04:57:11.143Z,28.6
2019-06-27T05:02:11.171Z,28.6
2019-06-27T05:07:11.304Z,29.3
2019-06-27T05:12:11.117Z,29.2
2019-06-27T05:17:11.272Z,29.5
2019-06-27T05:22:10.444Z,29.2
2019-06-27T05:27:09.755Z,28.5
2019-06-27T05:32:09.891Z,28.5
2019-06-27T05:37:10.179Z,29.4
2019-06-27T05:42:09.589Z,28.4
2019-06-27T05:47:08.240Z,27.8
2019-06-27T05:52:08.097Z,28.4
2019-06-27T05:57:08.139Z,28.9
2019-06-27T06:02:08.050Z,28.7
2019-06-27T06:13:34.882Z,27.7
2019-06-27T06:18:35.205Z,28.3
2019-06-27T06:23:35.278Z,28.6
2019-06-27T06:28:34.846Z,27.9
2019-06-27T06:33:35.474Z,29
2019-06-27T06:38:34.407Z,27.7
2019-06-27T06:43:34.311Z,28.2
2019-06-27T06:48:34.252Z,28.3
2019-06-27T06:53:34.369Z,28.5
2019-06-27T06:58:33.698Z,28.8
2019-06-27T07:03:33.502Z,28.7
2019-06-27T07:08:33.771Z,29.1
2019-06-27T07:13:33.136Z,29.1
2019-06-27T07:18:33.219Z,28.8
2019-06-27T07:23:32.968Z,29.1
2019-06-27T07:28:32.245Z,28.2
2019-06-27T07:33:32.018Z,28.9
2019-06-27T07:38:32.123Z,28.4
2019-06-27T07:43:31.106Z,28.5
2019-06-27T07:48:30.772Z,28
2019-06-27T07:53:30.587Z,28.7
2019-06-27T07:58:29.990Z,28.6
2019-06-27T08:03:30.361Z,29.4
2019-06-27T08:08:30.832Z,29.2
2019-06-27T08:13:30.399Z,29.2
2019-06-27T08:18:30.642Z,29.9
2019-06-27T08:23:40.827Z,30.2
2019-06-27T08:28:40.873Z,30.5
2019-06-27T08:33:40.535Z,30
2019-06-27T08:38:40.601Z,29.7
2019-06-27T08:43:35.347Z,30.5
2019-06-27T08:48:34.816Z,30.3
2019-06-27T08:53:35.328Z,31.2
2019-06-27T08:58:34.941Z,30.7
2019-06-27T09:03:34.938Z,29.7
2019-06-27T09:08:34.304Z,30.6
2019-06-27T09:13:34.768Z,30.7
2019-06-27T09:18:35.999Z,31.3
2019-06-27T09:23:37.608Z,30.1
2019-06-27T09:28:36.388Z,30.7
2019-06-27T09:33:35.992Z,30.4
2019-06-27T09:38:36.038Z,30.9
2019-06-27T09:43:35.614Z,30.6
2019-06-27T09:48:34.723Z,30.6
2019-06-27T09:53:34.946Z,31.1
2019-06-27T09:58:35.225Z,30.7
2019-06-27T10:03:35.125Z,31.4
2019-06-27T10:08:34.684Z,31.1
2019-06-27T10:13:34.436Z,31.2
2019-06-27T10:18:34.325Z,31.3
2019-06-27T10:23:34.431Z,31.9
2019-06-27T10:28:34.251Z,31.7
2019-06-27T10:33:33.669Z,31.7
2019-06-27T10:38:32.990Z,31.7
2019-06-27T10:43:32.765Z,31.3
2019-06-27T10:48:32.733Z,31.6
2019-06-27T10:53:33.046Z,31.7
2019-06-27T10:58:32.222Z,32
2019-06-27T11:03:31.474Z,31.8
2019-06-27T11:08:31.319Z,32
2019-06-27T11:13:31.534Z,31.8
2019-06-27T11:18:30.365Z,31.7
2019-06-27T11:23:29.765Z,31
2019-06-27T11:28:30.092Z,31.9
2019-06-27T11:33:32.892Z,31.3
2019-06-27T11:38:32.397Z,32
2019-06-27T11:43:32.101Z,31.7
2019-06-27T11:48:32.143Z,31.9
2019-06-27T11:53:32.499Z,32.4
2019-06-27T12:00:15.177Z,31.8
2019-06-27T12:05:14.823Z,31.6
2019-06-27T12:10:14.178Z,31.9
2019-06-27T12:15:14.024Z,31.7
2019-06-27T12:20:14.196Z,32
2019-06-27T12:25:14.056Z,31.8
2019-06-27T12:30:14.093Z,32.2
2019-06-27T12:35:13.566Z,32.1
2019-06-27T12:40:13.064Z,31.5
2019-06-27T12:45:13.042Z,31.3
2019-06-27T12:50:13.120Z,31.6
2019-06-27T12:55:12.712Z,31.5
2019-06-27T13:00:12.288Z,31
2019-06-27T13:05:11.715Z,31.3
2019-06-27T13:10:11.309Z,30.9
2019-06-27T13:15:10.685Z,30.8
2019-06-27T13:20:10.371Z,30.5
2019-06-27T13:25:09.957Z,30.5
2019-06-27T13:30:09.621Z,30.5
2019-06-27T13:35:09.204Z,30.3
2019-06-27T13:40:09.675Z,30.7
2019-06-27T13:45:09.681Z,30.9
2019-06-27T13:50:09.060Z,30.5
2019-06-27T13:55:08.726Z,30.6
2019-06-27T14:00:07.994Z,30.1
2019-06-27T14:05:08.281Z,30.6
2019-06-27T14:10:08.025Z,30.8
2019-06-27T14:15:07.686Z,30.4
2019-06-27T14:20:07.247Z,30.4
2019-06-27T14:25:06.826Z,30.3
2019-06-27T14:30:06.501Z,30.3
2019-06-27T14:35:15.112Z,30.1
2019-06-27T14:40:14.079Z,29.8
2019-06-27T14:45:13.720Z,30.1
2019-06-27T14:50:13.340Z,30.1
2019-06-27T14:55:12.884Z,29.8
2019-06-27T15:00:12.345Z,29.6
2019-06-27T15:05:12.225Z,29.7
2019-06-27T15:10:11.803Z,29.6
2019-06-27T15:15:11.584Z,29.5
2019-06-27T15:20:11.163Z,29.4
2019-06-27T15:25:10.868Z,29.2
2019-06-27T15:30:10.609Z,29
2019-06-27T15:35:10.643Z,29
2019-06-27T15:40:10.479Z,28.9
2019-06-27T15:45:09.865Z,28.8
2019-06-27T15:50:09.551Z,28.7
2019-06-27T15:55:12.148Z,28.5
2019-06-27T16:00:11.607Z,28.3
2019-06-27T16:05:11.112Z,28.3
2019-06-27T16:10:11.143Z,27.9
2019-06-27T16:15:11.136Z,27.9
2019-06-27T16:20:10.982Z,27.7
2019-06-27T16:25:10.671Z,27.7
2019-06-27T16:30:10.437Z,27.4
2019-06-27T16:35:09.796Z,27.3
2019-06-27T16:40:09.523Z,27.1
2019-06-27T16:45:08.967Z,26.9
2019-06-27T16:50:08.580Z,26.6
2019-06-27T16:55:08.148Z,26.3
2019-06-27T17:00:07.651Z,26.2
2019-06-27T17:05:07.174Z,26
2019-06-27T17:10:06.878Z,25.9
2019-06-27T17:15:06.465Z,25.7
2019-06-27T17:20:06.167Z,25.5
2019-06-27T17:25:05.450Z,25.3
2019-06-27T17:30:04.937Z,25
2019-06-27T17:35:04.507Z,24.8
2019-06-27T17:40:04.244Z,24.7
2019-06-27T17:45:03.975Z,24.5
2019-06-27T17:50:03.591Z,24.3
2019-06-27T17:55:03.324Z,24.3
2019-06-27T18:00:02.849Z,23.8
2019-06-27T18:05:02.392Z,23.9
2019-06-27T18:10:02.007Z,23.5
2019-06-27T18:15:01.842Z,23.1
2019-06-27T18:20:01.435Z,22.9
2019-06-27T18:25:00.782Z,22.7
2019-06-27T18:30:00.398Z,22.4
2019-06-27T18:35:00.052Z,22.4
2019-06-27T18:39:59.580Z,22.1
2019-06-27T18:44:59.080Z,22.1
2019-06-27T18:49:58.682Z,21.9
2019-06-27T18:54:58.290Z,21.9
2019-06-27T18:59:57.618Z,21.8
2019-06-27T19:04:56.835Z,21.7
2019-06-27T19:09:56.456Z,21.5
2019-06-27T19:14:56.137Z,21.5
2019-06-27T19:19:55.756Z,21.1
2019-06-27T19:24:55.524Z,21.3
2019-06-27T19:29:55.236Z,21.3
2019-06-27T19:34:54.968Z,21.2
2019-06-27T19:39:54.566Z,21.1
2019-06-27T19:44:54.146Z,21
2019-06-27T19:49:53.772Z,21
2019-06-27T19:54:53.562Z,20.8
2019-06-27T19:59:53.351Z,20.8
2019-06-27T20:04:54.672Z,20.6
2019-06-27T20:09:54.455Z,20.5
2019-06-27T20:14:54.212Z,20.4
2019-06-27T20:19:53.919Z,20.3
2019-06-27T20:24:53.911Z,20.2
2019-06-27T20:29:53.567Z,20.1
2019-06-27T20:34:53.169Z,19.8
2019-06-27T20:39:52.733Z,20
2019-06-27T20:44:52.430Z,20
2019-06-27T20:49:52.246Z,20.1
2019-06-27T20:54:52.024Z,20
2019-06-27T20:59:51.797Z,20.1
2019-06-27T21:04:51.446Z,20.1
2019-06-27T21:09:51.286Z,19.9
2019-06-27T21:14:51.285Z,20
2019-06-27T21:19:50.896Z,20
2019-06-27T21:24:50.612Z,19.9
2019-06-27T21:29:50.398Z,19.9
2019-06-27T21:34:50.047Z,19.9
2019-06-27T21:39:49.923Z,19.9
2019-06-27T21:44:49.636Z,19.6
2019-06-27T21:49:49.454Z,19.9
2019-06-27T21:54:49.149Z,19.8
2019-06-27T21:59:48.747Z,19.7
2019-06-27T22:04:48.243Z,19.6
2019-06-27T22:09:47.958Z,19.6
2019-06-27T22:14:47.529Z,19.5
2019-06-27T22:19:47.211Z,19.5
2019-06-27T22:24:46.964Z,19.5
2019-06-27T22:29:46.819Z,19.5
2019-06-27T22:34:46.634Z,19.5
2019-06-27T22:39:46.439Z,19.5
2019-06-27T22:44:46.173Z,19.3
2019-06-27T22:49:45.982Z,19.4
2019-06-27T22:54:45.353Z,19.3
2019-06-27T22:59:45.046Z,19.2
2019-06-27T23:04:44.680Z,19.1
2019-06-27T23:09:56.247Z,18.8
2019-06-27T23:14:55.166Z,18.9
2019-06-27T23:19:54.719Z,18.5
2019-06-27T23:24:54.242Z,18.6
2019-06-27T23:29:53.662Z,18.5
2019-06-27T23:34:53.164Z,18.3
2019-06-27T23:39:52.743Z,18.4
2019-06-27T23:44:52.530Z,18.2
2019-06-27T23:49:52.265Z,18.4
2019-06-27T23:54:51.973Z,18.3
2019-06-27T23:59:51.788Z,18.3
